Time;durP1;ratioP1;P1;durP2;ratioP2;P2;SDS_P1;SDS_P2;PMS_P1;PMS_P2;Temp;Humidity;BMP_temperature;BMP_pressure;BME280_temperature;BME280_humidity;BME280_pressure;Samples;Min_cycle;Max_cycle;Signal;HPM_P1;HPM_P2
2022/11/24 00:07:46;;;;;;;52.20;24.50;;;;;;;0.97;89.38;97709.04;420830;1291;110636;-40
2022/11/24 00:17:53;;;;;;;49.10;22.10;;;;;;;0.99;89.20;97714.25;420664;1291;107569;-39
2022/11/24 00:27:58;;;;;;;37.50;17.90;;;;;;;1.05;89.12;97711.87;420909;1291;99224;-39
2022/11/24 00:38:05;;;;;;;58.20;23.80;;;;;;;1.02;89.18;97713.91;420962;1298;109363;-41
2022/11/24 00:48:12;;;;;;;39.80;20.30;;;;;;;0.92;89.23;97726.08;420817;1292;99246;-39
2022/11/24 00:58:19;;;;;;;39.30;20.20;;;;;;;0.90;89.14;97731.55;420817;1298;113317;-41
2022/11/24 01:08:25;;;;;;;37.10;20.50;;;;;;;0.86;89.30;97738.62;420926;1291;107963;-41
2022/11/24 01:18:32;;;;;;;39.80;18.80;;;;;;;0.85;89.25;97744.22;420858;1292;98426;-39
2022/11/24 01:28:38;;;;;;;48.60;21.90;;;;;;;0.88;89.49;97742.20;420880;1295;108555;-41
2022/11/24 01:38:53;;;;;;;53.50;25.60;;;;;;;0.79;89.32;97752.11;420738;1298;98827;-40
2022/11/24 01:59:07;;;;;;;34.70;19.10;;;;;;;0.93;89.30;97761.84;420816;1290;108806;-41
2022/11/24 02:19:41;;;;;;;49.20;24.30;;;;;;;0.97;89.28;97760.02;420303;1288;100019;-40
2022/11/24 02:29:49;;;;;;;55.40;23.40;;;;;;;0.88;89.26;97763.50;420071;1301;99223;-41
2022/11/24 02:39:55;;;;;;;51.50;20.60;;;;;;;0.82;89.14;97761.21;419975;1295;110796;-40
2022/11/24 02:50:02;;;;;;;33.80;18.60;;;;;;;0.92;89.22;97760.57;420018;1301;107394;-40
2022/11/24 03:00:11;;;;;;;38.20;18.60;;;;;;;1.10;89.44;97749.71;419964;1301;99245;-43
2022/11/24 03:10:16;;;;;;;;;;;;;;;1.11;89.20;97748.52;420062;1302;107852;-39
2022/11/24 03:20:23;;;;;;;50.30;25.10;;;;;;;1.01;89.34;97750.63;420102;1298;98028;-40
2022/11/24 03:40:35;;;;;;;42.90;21.70;;;;;;;0.76;89.11;97762.09;419827;1295;108617;-41
2022/11/24 03:50:42;;;;;;;42.10;21.20;;;;;;;0.76;89.28;97763.70;420078;1301;99225;-39
2022/11/24 04:00:50;;;;;;;42.60;21.60;;;;;;;0.84;89.25;97769.39;419870;1301;107042;-40
2022/11/24 04:10:56;;;;;;;55.40;25.20;;;;;;;0.88;89.40;97773.42;420061;1301;98818;-42
2022/11/24 04:21:03;;;;;;;55.00;26.40;;;;;;;0.84;89.53;97773.88;420061;1301;112336;-40
2022/11/24 04:31:09;;;;;;;61.80;25.90;;;;;;;0.84;89.64;97787.09;419981;1295;108587;-41
2022/11/24 04:41:16;;;;;;;55.70;24.80;;;;;;;0.80;89.56;97799.20;420055;1301;99261;-40
2022/11/24 04:51:23;;;;;;;58.90;25.70;;;;;;;0.80;89.46;97804.31;419960;1301;111361;-41
2022/11/24 05:11:36;;;;;;;46.90;23.00;;;;;;;0.98;89.49;97817.61;419960;1301;99112;-40
2022/11/24 05:21:43;;;;;;;53.30;23.90;;;;;;;1.04;89.53;97823.17;419976;1301;108877;-40
2022/11/24 05:31:51;;;;;;;72.80;31.00;;;;;;;1.01;89.86;97828.11;421035;1300;101744;-40
2022/11/24 05:41:59;;;;;;;62.50;30.40;;;;;;;0.91;89.61;97832.94;420079;1293;111215;-40
2022/11/24 05:52:06;;;;;;;86.40;34.00;;;;;;;0.80;89.74;97843.11;420031;1295;107388;-40
2022/11/24 06:02:14;;;;;;;61.40;27.50;;;;;;;0.70;89.57;97853.70;419898;1300;98022;-40
2022/11/24 06:12:21;;;;;;;41.70;22.40;;;;;;;0.73;89.71;97865.34;420054;1293;111371;-43
2022/11/24 06:22:28;;;;;;;33.40;18.70;;;;;;;0.78;89.61;97873.23;420468;1302;107793;-40
2022/11/24 06:32:37;;;;;;;26.70;16.30;;;;;;;0.84;89.68;97885.14;420277;1299;99284;-40
2022/11/24 06:42:50;;;;;;;46.70;22.40;;;;;;;0.87;89.87;97893.10;419928;1294;107521;-40
2022/11/24 06:52:56;;;;;;;59.30;29.00;;;;;;;0.81;89.89;97903.23;420583;1302;98101;-40
2022/11/24 07:03:03;;;;;;;45.00;24.70;;;;;;;0.68;89.85;97909.27;420980;1301;111353;-40
2022/11/24 07:13:11;;;;;;;62.20;27.30;;;;;;;0.61;89.93;97914.25;420003;1301;107750;-41
2022/11/24 07:23:18;;;;;;;37.30;20.70;;;;;;;0.64;89.77;97925.61;420068;1295;98569;-40
2022/11/24 07:33:25;;;;;;;36.30;19.50;;;;;;;0.61;89.69;97929.83;419845;1294;107210;-41
2022/11/24 07:43:32;;;;;;;27.00;15.90;;;;;;;0.72;89.79;97930.70;419905;1295;99342;-39
2022/11/24 07:53:41;;;;;;;26.80;15.10;;;;;;;0.77;89.66;97933.36;419901;1294;113402;-40
2022/11/24 08:03:48;;;;;;;65.20;29.40;;;;;;;0.85;89.92;97936.61;419922;1295;106593;-40
2022/11/24 08:13:56;;;;;;;46.90;23.90;;;;;;;0.80;90.02;97941.77;419934;1295;99269;-39
2022/11/24 08:24:03;;;;;;;36.90;21.20;;;;;;;0.68;89.71;97946.70;419949;1294;112184;-40
2022/11/24 08:34:11;;;;;;;27.10;15.40;;;;;;;0.61;89.73;97963.13;419983;1298;107817;-41
2022/11/24 08:44:18;;;;;;;22.50;12.60;;;;;;;0.59;89.57;97970.18;419882;1294;99094;-40
2022/11/24 08:54:26;;;;;;;24.50;14.60;;;;;;;0.72;89.78;97979.91;419956;1294;108660;-40
2022/11/24 09:04:34;;;;;;;25.40;14.00;;;;;;;0.86;89.82;97980.10;419916;1294;99223;-40
2022/11/24 09:14:41;;;;;;;33.90;19.10;;;;;;;0.83;89.62;97983.52;420048;1302;111359;-41
2022/11/24 09:24:49;;;;;;;45.90;22.40;;;;;;;0.84;89.83;97985.27;419992;1293;108553;-39
2022/11/24 09:34:56;;;;;;;47.20;23.90;;;;;;;0.76;89.74;97989.98;419912;1301;99117;-39
2022/11/24 09:45:16;;;;;;;41.70;22.50;;;;;;;0.80;89.71;97998.61;419919;1293;107314;-40
2022/11/24 09:55:39;;;;;;;27.70;16.20;;;;;;;1.02;89.67;97998.70;419945;1292;99274;-40
2022/11/24 10:05:48;;;;;;;30.40;17.20;;;;;;;1.16;89.66;97997.00;420016;1295;111231;-40
2022/11/24 10:15:55;;;;;;;52.00;27.90;;;;;;;1.37;89.82;97999.61;419979;1298;108024;-39
2022/11/24 10:26:07;;;;;;;41.10;22.30;;;;;;;1.34;89.74;98004.18;420113;1301;99381;-40
2022/11/24 10:36:20;;;;;;;45.10;22.50;;;;;;;1.15;89.73;98002.83;419974;1307;107252;-42
2022/11/24 10:46:29;;;;;;;30.90;16.50;;;;;;;1.03;89.45;98005.68;420918;1299;98836;-40
2022/11/24 10:56:45;;;;;;;33.00;18.50;;;;;;;1.06;89.70;98013.83;420009;1296;110400;-40
2022/11/24 11:07:06;;;;;;;29.80;16.50;;;;;;;1.10;89.46;98011.20;420006;1293;107328;-40
2022/11/24 11:17:26;;;;;;;31.80;18.70;;;;;;;1.07;89.53;98019.38;419848;1301;358804;-40
2022/11/24 11:27:34;;;;;;;42.60;22.90;;;;;;;1.14;89.69;98017.12;419925;1302;107900;-40
2022/11/24 11:37:43;;;;;;;53.50;26.10;;;;;;;1.12;89.73;98021.04;419953;1302;99258;-40
2022/11/24 11:47:48;;;;;;;47.40;24.90;;;;;;;1.07;89.70;98021.11;420056;1303;110873;-40
2022/11/24 11:57:55;;;;;;;79.00;38.30;;;;;;;1.06;89.81;98028.45;420043;1300;106997;-40
2022/11/24 12:08:07;;;;;;;56.00;26.40;;;;;;;1.08;89.82;98029.20;419902;1295;99084;-40
2022/11/24 12:18:25;;;;;;;49.90;24.30;;;;;;;1.22;89.89;98032.89;419936;1302;107818;-40
2022/11/24 12:28:52;;;;;;;51.90;26.80;;;;;;;1.27;89.83;98029.01;419886;1298;99247;-40
2022/11/24 12:38:57;;;;;;;52.80;29.20;;;;;;;1.32;89.73;98033.85;420144;1294;112315;-41
2022/11/24 12:49:04;;;;;;;82.70;43.70;;;;;;;1.28;89.90;98041.04;420006;1293;107608;-39
2022/11/24 12:59:16;;;;;;;149.80;59.90;;;;;;;1.08;89.97;98048.15;419939;1302;98035;-39
2022/11/24 13:09:24;;;;;;;71.70;36.30;;;;;;;1.04;90.03;98056.80;420056;1296;111354;-40
2022/11/24 13:19:35;;;;;;;32.00;19.20;;;;;;;1.06;89.87;98058.82;419892;1293;107431;-42
2022/11/24 13:29:43;;;;;;;31.60;19.60;;;;;;;1.01;89.71;98068.71;419880;1294;99221;-40
2022/11/24 13:39:51;;;;;;;28.00;17.70;;;;;;;1.04;89.92;98078.98;420033;1301;107327;-41
2022/11/24 13:49:59;;;;;;;41.40;22.20;;;;;;;1.11;90.00;98087.51;419973;1308;99173;-40
2022/11/24 14:00:19;;;;;;;60.60;31.10;;;;;;;0.97;90.02;98101.55;419981;1301;111410;-40
2022/11/24 14:10:30;;;;;;;;;;;;;;;0.82;90.07;98120.35;420033;1298;107977;-41
2022/11/24 14:20:37;;;;;;;58.10;24.60;;;;;;;0.64;89.97;98130.88;420062;1301;99224;-40
2022/11/24 14:30:45;;;;;;;39.20;22.50;;;;;;;0.57;90.01;98146.62;419922;1294;98049;-41
2022/11/24 14:40:52;;;;;;;35.90;20.40;;;;;;;0.61;90.01;98162.94;419924;1301;109550;-41
2022/11/24 14:51:05;;;;;;;31.50;18.70;;;;;;;0.69;90.23;98172.98;419927;1301;98953;-41
2022/11/24 15:01:21;;;;;;;36.70;21.90;;;;;;;0.78;90.18;98176.48;420045;1294;110790;-42
2022/11/24 15:11:31;;;;;;;100.60;48.10;;;;;;;0.88;90.38;98189.83;420016;1294;108249;-41
2022/11/24 15:21:38;;;;;;;86.00;41.70;;;;;;;0.75;90.20;98199.89;419976;1301;99775;-41
2022/11/24 15:31:46;;;;;;;98.80;50.50;;;;;;;0.61;90.23;98207.88;419942;1303;110931;-41
2022/11/24 15:41:59;;;;;;;68.70;35.30;;;;;;;0.51;90.30;98221.73;419902;1295;107441;-40
2022/11/24 15:52:07;;;;;;;84.80;40.80;;;;;;;0.48;90.31;98222.33;419994;1302;98062;-39
2022/11/24 16:02:14;;;;;;;102.30;50.50;;;;;;;0.57;90.28;98225.88;419932;1301;108904;-40
2022/11/24 16:12:23;;;;;;;84.40;44.70;;;;;;;0.71;90.52;98232.58;419855;1294;99233;-41
2022/11/24 16:22:30;;;;;;;70.50;38.90;;;;;;;0.80;90.35;98241.30;419984;1301;112492;-39
2022/11/24 16:32:38;;;;;;;81.90;42.20;;;;;;;0.79;90.37;98250.12;420127;1295;108541;-40
2022/11/24 16:42:45;;;;;;;97.40;46.10;;;;;;;0.69;90.38;98252.23;420051;1302;97999;-40
2022/11/24 16:52:52;;;;;;;96.40;55.20;;;;;;;0.64;90.47;98257.07;420105;1294;107897;-41
2022/11/24 17:02:59;;;;;;;104.60;49.30;;;;;;;0.54;90.47;98260.05;420066;1298;99365;-41
2022/11/24 17:13:07;;;;;;;90.90;48.90;;;;;;;0.54;90.60;98271.54;420020;1296;112748;-41
2022/11/24 17:23:16;;;;;;;95.10;56.10;;;;;;;0.62;90.49;98280.17;419995;1287;108713;-41
2022/11/24 17:33:24;;;;;;;83.30;46.30;;;;;;;0.74;90.61;98286.27;419999;1300;99249;-40
2022/11/24 17:43:32;;;;;;;71.60;38.10;;;;;;;0.90;90.79;98296.02;420046;1293;107877;-41
2022/11/24 17:53:41;;;;;;;128.00;64.20;;;;;;;0.94;90.71;98303.37;420128;1301;99233;-40
2022/11/24 18:03:48;;;;;;;143.90;70.90;;;;;;;0.81;90.54;98310.81;420079;1296;111859;-40
2022/11/24 18:14:02;;;;;;;83.10;41.70;;;;;;;0.68;90.53;98321.95;419979;1301;108444;-40
2022/11/24 18:24:10;;;;;;;61.80;32.10;;;;;;;0.67;90.62;98329.93;420103;1295;99271;-41
2022/11/24 18:34:18;;;;;;;53.30;30.20;;;;;;;0.74;90.59;98338.88;419960;1301;107679;-40
2022/11/24 18:44:25;;;;;;;67.90;34.40;;;;;;;0.81;90.58;98341.77;419997;1301;99342;-40
2022/11/24 18:54:33;;;;;;;110.10;53.20;;;;;;;0.94;90.79;98335.42;419987;1287;111161;-40
2022/11/24 19:04:41;;;;;;;89.80;45.80;;;;;;;0.91;90.82;98336.13;419978;1298;108529;-41
2022/11/24 19:14:48;;;;;;;107.00;49.10;;;;;;;0.78;90.73;98344.11;420038;1300;99287;-41
2022/11/24 19:24:55;;;;;;;117.00;60.20;;;;;;;0.60;90.65;98358.45;420053;1295;111280;-40
2022/11/24 19:35:03;;;;;;;111.80;58.60;;;;;;;0.51;90.56;98369.18;419883;1300;109889;-40
2022/11/24 19:45:09;;;;;;;105.30;56.80;;;;;;;0.56;90.78;98373.23;419973;1302;99242;-40
2022/11/24 19:55:16;;;;;;;96.40;51.10;;;;;;;0.68;90.86;98382.88;419948;1301;108837;-40
2022/11/24 20:05:23;;;;;;;85.30;46.10;;;;;;;0.86;91.05;98392.58;419956;1301;98082;-39
2022/11/24 20:15:31;;;;;;;168.70;79.10;;;;;;;0.82;90.82;98396.04;419956;1301;110763;-40
2022/11/24 20:35:43;;;;;;;190.30;87.90;;;;;;;0.58;90.88;98417.05;420040;1302;99285;-40
2022/11/24 20:45:50;;;;;;;148.90;74.50;;;;;;;0.51;90.76;98421.66;420036;1294;111508;-40
2022/11/24 20:56:00;;;;;;;156.80;76.30;;;;;;;0.59;90.96;98427.72;419962;1287;107868;-39
2022/11/24 21:06:13;;;;;;;142.40;68.50;;;;;;;0.73;91.12;98436.63;419921;1294;99283;-39
2022/11/24 21:16:25;;;;;;;148.70;70.60;;;;;;;0.85;91.18;98435.21;419899;1294;107488;-41
2022/11/24 21:26:34;;;;;;;160.60;76.80;;;;;;;1.05;91.16;98431.61;420020;1288;99548;-40
2022/11/24 21:36:43;;;;;;;224.70;93.80;;;;;;;1.09;91.25;98430.59;420159;1301;112238;-40
2022/11/24 21:46:51;;;;;;;233.20;88.70;;;;;;;0.96;90.97;98438.17;419987;1301;107788;-40
2022/11/24 21:57:02;;;;;;;222.40;83.00;;;;;;;0.77;90.99;98440.68;420192;1294;99066;-38
2022/11/24 22:07:09;;;;;;;168.70;65.20;;;;;;;0.71;90.93;98441.86;420116;1294;112090;-40
2022/11/24 22:17:16;;;;;;;153.00;67.70;;;;;;;0.73;91.15;98446.52;420094;1293;108549;-40
2022/11/24 22:27:23;;;;;;;151.60;68.20;;;;;;;0.86;91.28;98452.94;420171;1294;99218;-39
2022/11/24 22:37:29;;;;;;;138.70;60.20;;;;;;;0.92;90.97;98462.70;419998;1286;106344;-39
2022/11/24 22:47:37;;;;;;;205.90;80.90;;;;;;;0.90;91.29;98472.14;420045;1297;99252;-40
2022/11/24 22:57:44;;;;;;;202.70;79.20;;;;;;;0.86;91.20;98481.05;419989;1295;112086;-40
2022/11/24 23:07:54;;;;;;;220.70;72.00;;;;;;;0.73;91.27;98482.20;420035;1298;108665;-40
2022/11/24 23:18:02;;;;;;;158.70;67.20;;;;;;;0.74;91.06;98491.02;419785;1294;349675;-40
2022/11/24 23:28:09;;;;;;;130.70;52.90;;;;;;;0.74;91.01;98493.71;420018;1291;112177;-40
2022/11/24 23:38:17;;;;;;;118.40;51.70;;;;;;;0.79;91.27;98498.54;419981;1301;108054;-40
2022/11/24 23:48:24;;;;;;;116.30;47.40;;;;;;;0.87;91.33;98495.20;419970;1301;99179;-40
2022/11/24 23:58:32;;;;;;;149.80;63.10;;;;;;;0.97;91.59;98497.80;419981;1301;108129;-40
